sensor_id;sensor_type;location;lat;lon;timestamp;P1;durP1;ratioP1;P2;durP2;ratioP2
48765;SDS011;65794;51.836;5.002;2023-04-25T11:24:39;11.02;;;1.08;;
48765;SDS011;65794;51.836;5.002;2023-04-25T11:27:06;6.90;;;1.08;;
48765;SDS011;65794;51.836;5.002;2023-04-25T11:29:33;5.18;;;0.90;;
48765;SDS011;65794;51.836;5.002;2023-04-25T11:32:00;6.50;;;1.10;;
48765;SDS011;65794;51.836;5.002;2023-04-25T11:34:29;10.07;;;1.00;;
48765;SDS011;65794;51.836;5.002;2023-04-25T11:37:00;8.00;;;1.00;;
48765;SDS011;65794;51.836;5.002;2023-04-25T11:39:28;10.45;;;1.13;;
48765;SDS011;65794;51.836;5.002;2023-04-25T11:41:56;9.15;;;1.10;;
48765;SDS011;65794;51.836;5.002;2023-04-25T11:44:23;7.32;;;0.80;;
48765;SDS011;65794;51.836;5.002;2023-04-25T11:46:50;4.10;;;0.80;;
48765;SDS011;65794;51.836;5.002;2023-04-25T11:49:17;6.38;;;0.93;;
48765;SDS011;65794;51.836;5.002;2023-04-25T11:51:46;5.30;;;1.00;;
48765;SDS011;65794;51.836;5.002;2023-04-25T11:54:14;5.35;;;1.10;;
48765;SDS011;65794;51.836;5.002;2023-04-25T11:56:41;5.57;;;1.17;;
48765;SDS011;65794;51.836;5.002;2023-04-25T11:59:08;13.73;;;1.13;;
48765;SDS011;65794;51.836;5.002;2023-04-25T12:01:38;5.35;;;1.48;;
48765;SDS011;65794;51.836;5.002;2023-04-25T12:04:21;10.65;;;1.40;;
48765;SDS011;65794;51.836;5.002;2023-04-25T12:06:51;10.73;;;1.15;;
48765;SDS011;65794;51.836;5.002;2023-04-25T12:09:27;7.22;;;1.30;;
48765;SDS011;65794;51.836;5.002;2023-04-25T12:11:55;6.95;;;1.25;;
48765;SDS011;65794;51.836;5.002;2023-04-25T12:14:23;7.05;;;1.17;;
48765;SDS011;65794;51.836;5.002;2023-04-25T12:16:57;6.43;;;0.93;;
48765;SDS011;65794;51.836;5.002;2023-04-25T12:19:25;11.07;;;1.40;;
48765;SDS011;65794;51.836;5.002;2023-04-25T12:21:52;5.78;;;1.10;;
48765;SDS011;65794;51.836;5.002;2023-04-25T12:24:25;7.40;;;0.68;;
48765;SDS011;65794;51.836;5.002;2023-04-25T12:27:01;6.55;;;0.88;;
48765;SDS011;65794;51.836;5.002;2023-04-25T12:29:30;7.85;;;1.33;;
48765;SDS011;65794;51.836;5.002;2023-04-25T12:32:04;7.13;;;1.33;;
48765;SDS011;65794;51.836;5.002;2023-04-25T12:34:31;4.97;;;0.85;;
48765;SDS011;65794;51.836;5.002;2023-04-25T12:36:58;5.28;;;0.80;;
48765;SDS011;65794;51.836;5.002;2023-04-25T12:39:25;6.90;;;0.80;;
48765;SDS011;65794;51.836;5.002;2023-04-25T12:41:52;9.05;;;0.70;;
48765;SDS011;65794;51.836;5.002;2023-04-25T12:44:20;4.80;;;0.57;;
48765;SDS011;65794;51.836;5.002;2023-04-25T12:46:48;7.28;;;1.00;;
48765;SDS011;65794;51.836;5.002;2023-04-25T12:49:16;9.02;;;1.20;;
48765;SDS011;65794;51.836;5.002;2023-04-25T12:52:03;8.73;;;1.02;;
48765;SDS011;65794;51.836;5.002;2023-04-25T12:54:30;5.13;;;1.20;;
48765;SDS011;65794;51.836;5.002;2023-04-25T12:56:57;12.77;;;1.20;;
48765;SDS011;65794;51.836;5.002;2023-04-25T12:59:24;5.72;;;0.70;;
48765;SDS011;65794;51.836;5.002;2023-04-25T13:01:51;6.70;;;0.90;;
48765;SDS011;65794;51.836;5.002;2023-04-25T13:04:18;5.00;;;0.98;;
48765;SDS011;65794;51.836;5.002;2023-04-25T13:06:47;5.22;;;1.10;;
48765;SDS011;65794;51.836;5.002;2023-04-25T13:09:14;2.05;;;0.70;;
48765;SDS011;65794;51.836;5.002;2023-04-25T13:11:42;3.25;;;0.70;;
48765;SDS011;65794;51.836;5.002;2023-04-25T13:14:09;2.75;;;0.47;;
48765;SDS011;65794;51.836;5.002;2023-04-25T13:16:36;4.63;;;0.63;;
48765;SDS011;65794;51.836;5.002;2023-04-25T13:19:03;5.32;;;1.08;;
48765;SDS011;65794;51.836;5.002;2023-04-25T13:21:30;4.25;;;1.10;;
48765;SDS011;65794;51.836;5.002;2023-04-25T13:23:59;5.07;;;0.60;;
48765;SDS011;65794;51.836;5.002;2023-04-25T13:26:26;4.88;;;0.90;;
48765;SDS011;65794;51.836;5.002;2023-04-25T13:28:53;5.88;;;1.30;;
48765;SDS011;65794;51.836;5.002;2023-04-25T13:31:19;5.95;;;0.90;;
48765;SDS011;65794;51.836;5.002;2023-04-25T13:33:47;4.95;;;1.00;;
48765;SDS011;65794;51.836;5.002;2023-04-25T13:36:14;5.88;;;0.90;;
48765;SDS011;65794;51.836;5.002;2023-04-25T13:38:41;6.93;;;0.90;;
48765;SDS011;65794;51.836;5.002;2023-04-25T13:41:10;5.93;;;0.90;;
48765;SDS011;65794;51.836;5.002;2023-04-25T13:43:42;4.88;;;1.05;;
48765;SDS011;65794;51.836;5.002;2023-04-25T13:46:08;5.95;;;1.00;;
48765;SDS011;65794;51.836;5.002;2023-04-25T13:48:56;6.20;;;1.05;;
48765;SDS011;65794;51.836;5.002;2023-04-25T13:51:36;5.03;;;0.98;;
48765;SDS011;65794;51.836;5.002;2023-04-25T13:54:03;6.45;;;1.13;;
48765;SDS011;65794;51.836;5.002;2023-04-25T13:56:29;6.25;;;1.02;;
48765;SDS011;65794;51.836;5.002;2023-04-25T13:58:56;5.53;;;0.90;;
48765;SDS011;65794;51.836;5.002;2023-04-25T14:01:23;6.45;;;0.93;;
48765;SDS011;65794;51.836;5.002;2023-04-25T14:03:50;5.78;;;1.05;;
48765;SDS011;65794;51.836;5.002;2023-04-25T14:06:18;5.13;;;1.15;;
48765;SDS011;65794;51.836;5.002;2023-04-25T14:08:49;4.70;;;1.13;;
48765;SDS011;65794;51.836;5.002;2023-04-25T14:11:16;9.13;;;1.23;;
48765;SDS011;65794;51.836;5.002;2023-04-25T14:13:45;7.15;;;1.38;;
48765;SDS011;65794;51.836;5.002;2023-04-25T14:16:12;6.22;;;1.40;;
48765;SDS011;65794;51.836;5.002;2023-04-25T14:18:39;8.48;;;1.02;;
48765;SDS011;65794;51.836;5.002;2023-04-25T14:21:06;8.02;;;1.20;;
48765;SDS011;65794;51.836;5.002;2023-04-25T14:23:33;7.85;;;0.90;;
48765;SDS011;65794;51.836;5.002;2023-04-25T14:26:01;7.05;;;1.27;;
48765;SDS011;65794;51.836;5.002;2023-04-25T14:28:28;7.97;;;1.20;;
48765;SDS011;65794;51.836;5.002;2023-04-25T14:30:55;7.93;;;0.80;;
48765;SDS011;65794;51.836;5.002;2023-04-25T14:33:24;4.78;;;1.00;;
48765;SDS011;65794;51.836;5.002;2023-04-25T14:35:51;6.70;;;1.02;;
48765;SDS011;65794;51.836;5.002;2023-04-25T14:38:19;2.40;;;0.57;;
48765;SDS011;65794;51.836;5.002;2023-04-25T14:40:50;6.05;;;1.20;;
48765;SDS011;65794;51.836;5.002;2023-04-25T14:43:17;4.88;;;1.20;;
48765;SDS011;65794;51.836;5.002;2023-04-25T14:45:44;6.10;;;1.25;;
48765;SDS011;65794;51.836;5.002;2023-04-25T14:48:11;6.90;;;1.70;;
48765;SDS011;65794;51.836;5.002;2023-04-25T14:50:38;3.88;;;0.90;;
48765;SDS011;65794;51.836;5.002;2023-04-25T14:53:06;7.68;;;1.75;;
48765;SDS011;65794;51.836;5.002;2023-04-25T14:55:32;4.97;;;1.10;;
48765;SDS011;65794;51.836;5.002;2023-04-25T14:57:59;10.40;;;1.20;;
48765;SDS011;65794;51.836;5.002;2023-04-25T15:00:26;7.25;;;0.77;;
48765;SDS011;65794;51.836;5.002;2023-04-25T15:02:53;7.60;;;0.70;;
48765;SDS011;65794;51.836;5.002;2023-04-25T15:05:20;4.70;;;0.90;;
48765;SDS011;65794;51.836;5.002;2023-04-25T15:07:47;5.15;;;1.17;;
48765;SDS011;65794;51.836;5.002;2023-04-25T15:10:14;7.88;;;0.98;;
48765;SDS011;65794;51.836;5.002;2023-04-25T15:12:42;4.70;;;0.98;;
48765;SDS011;65794;51.836;5.002;2023-04-25T15:15:13;7.82;;;0.88;;
48765;SDS011;65794;51.836;5.002;2023-04-25T15:17:51;5.38;;;0.75;;
48765;SDS011;65794;51.836;5.002;2023-04-25T15:20:19;4.85;;;0.90;;
48765;SDS011;65794;51.836;5.002;2023-04-25T15:22:46;3.25;;;0.90;;
48765;SDS011;65794;51.836;5.002;2023-04-25T15:25:15;6.28;;;1.00;;
48765;SDS011;65794;51.836;5.002;2023-04-25T15:27:44;6.97;;;1.00;;
48765;SDS011;65794;51.836;5.002;2023-04-25T15:30:13;3.38;;;0.60;;
48765;SDS011;65794;51.836;5.002;2023-04-25T15:32:42;5.45;;;1.00;;
48765;SDS011;65794;51.836;5.002;2023-04-25T15:35:09;2.92;;;0.60;;
48765;SDS011;65794;51.836;5.002;2023-04-25T15:37:36;6.70;;;1.13;;
48765;SDS011;65794;51.836;5.002;2023-04-25T15:42:35;5.38;;;0.90;;
48765;SDS011;65794;51.836;5.002;2023-04-25T15:45:03;4.88;;;0.80;;
48765;SDS011;65794;51.836;5.002;2023-04-25T15:47:30;5.07;;;0.90;;
48765;SDS011;65794;51.836;5.002;2023-04-25T15:49:58;2.00;;;0.70;;
48765;SDS011;65794;51.836;5.002;2023-04-25T15:52:24;3.45;;;0.90;;
48765;SDS011;65794;51.836;5.002;2023-04-25T15:54:51;5.70;;;1.20;;
48765;SDS011;65794;51.836;5.002;2023-04-25T15:57:19;7.97;;;1.05;;
48765;SDS011;65794;51.836;5.002;2023-04-25T15:59:47;8.57;;;0.98;;
48765;SDS011;65794;51.836;5.002;2023-04-25T16:02:14;7.50;;;0.90;;
48765;SDS011;65794;51.836;5.002;2023-04-25T16:04:42;4.90;;;1.20;;
48765;SDS011;65794;51.836;5.002;2023-04-25T16:07:09;4.70;;;1.00;;
48765;SDS011;65794;51.836;5.002;2023-04-25T16:09:36;4.13;;;0.95;;
48765;SDS011;65794;51.836;5.002;2023-04-25T16:12:03;8.30;;;1.27;;
48765;SDS011;65794;51.836;5.002;2023-04-25T16:14:31;16.88;;;1.17;;
48765;SDS011;65794;51.836;5.002;2023-04-25T16:16:58;7.03;;;1.30;;
48765;SDS011;65794;51.836;5.002;2023-04-25T16:19:25;6.97;;;0.98;;
48765;SDS011;65794;51.836;5.002;2023-04-25T16:21:52;6.32;;;1.27;;
48765;SDS011;65794;51.836;5.002;2023-04-25T16:24:19;6.55;;;1.30;;
48765;SDS011;65794;51.836;5.002;2023-04-25T16:26:46;6.07;;;1.45;;
48765;SDS011;65794;51.836;5.002;2023-04-25T16:29:13;6.93;;;1.52;;
48765;SDS011;65794;51.836;5.002;2023-04-25T16:31:42;6.13;;;1.67;;
48765;SDS011;65794;51.836;5.002;2023-04-25T16:34:10;7.93;;;1.50;;
48765;SDS011;65794;51.836;5.002;2023-04-25T16:36:37;6.30;;;1.33;;
48765;SDS011;65794;51.836;5.002;2023-04-25T16:39:04;8.13;;;1.33;;
48765;SDS011;65794;51.836;5.002;2023-04-25T16:41:35;5.00;;;1.23;;
48765;SDS011;65794;51.836;5.002;2023-04-25T16:44:02;8.77;;;1.33;;
48765;SDS011;65794;51.836;5.002;2023-04-25T16:46:30;9.52;;;2.38;;
48765;SDS011;65794;51.836;5.002;2023-04-25T16:48:57;5.13;;;1.40;;
48765;SDS011;65794;51.836;5.002;2023-04-25T16:51:24;9.73;;;2.03;;
48765;SDS011;65794;51.836;5.002;2023-04-25T16:53:52;9.75;;;1.25;;
48765;SDS011;65794;51.836;5.002;2023-04-25T16:56:20;5.90;;;1.48;;
48765;SDS011;65794;51.836;5.002;2023-04-25T16:58:49;4.80;;;1.77;;
48765;SDS011;65794;51.836;5.002;2023-04-25T17:01:17;3.90;;;0.82;;
48765;SDS011;65794;51.836;5.002;2023-04-25T17:03:46;15.77;;;1.02;;
48765;SDS011;65794;51.836;5.002;2023-04-25T17:06:14;5.20;;;1.25;;
48765;SDS011;65794;51.836;5.002;2023-04-25T17:08:41;4.97;;;1.27;;
48765;SDS011;65794;51.836;5.002;2023-04-25T17:11:08;7.80;;;1.50;;
48765;SDS011;65794;51.836;5.002;2023-04-25T17:13:36;5.05;;;1.48;;
48765;SDS011;65794;51.836;5.002;2023-04-25T17:16:03;7.53;;;1.40;;
48765;SDS011;65794;51.836;5.002;2023-04-25T17:18:31;6.15;;;1.27;;
48765;SDS011;65794;51.836;5.002;2023-04-25T17:20:58;8.35;;;0.80;;
48765;SDS011;65794;51.836;5.002;2023-04-25T17:23:24;10.43;;;1.40;;
48765;SDS011;65794;51.836;5.002;2023-04-25T17:25:51;7.28;;;1.10;;
48765;SDS011;65794;51.836;5.002;2023-04-25T17:28:19;11.57;;;1.30;;
48765;SDS011;65794;51.836;5.002;2023-04-25T17:30:45;4.22;;;0.82;;
48765;SDS011;65794;51.836;5.002;2023-04-25T17:33:12;7.18;;;1.02;;
48765;SDS011;65794;51.836;5.002;2023-04-25T17:35:39;10.65;;;1.65;;
48765;SDS011;65794;51.836;5.002;2023-04-25T17:38:06;6.03;;;1.35;;
48765;SDS011;65794;51.836;5.002;2023-04-25T17:40:35;10.43;;;1.58;;
48765;SDS011;65794;51.836;5.002;2023-04-25T17:43:16;7.57;;;2.10;;
48765;SDS011;65794;51.836;5.002;2023-04-25T17:45:43;7.13;;;1.50;;
48765;SDS011;65794;51.836;5.002;2023-04-25T17:48:10;9.50;;;1.38;;
48765;SDS011;65794;51.836;5.002;2023-04-25T17:50:38;6.15;;;1.20;;
48765;SDS011;65794;51.836;5.002;2023-04-25T17:53:05;8.70;;;1.40;;
48765;SDS011;65794;51.836;5.002;2023-04-25T17:55:32;14.23;;;1.58;;
48765;SDS011;65794;51.836;5.002;2023-04-25T17:57:59;7.55;;;0.90;;
48765;SDS011;65794;51.836;5.002;2023-04-25T18:00:26;6.80;;;1.15;;
48765;SDS011;65794;51.836;5.002;2023-04-25T18:02:53;8.00;;;1.33;;
48765;SDS011;65794;51.836;5.002;2023-04-25T18:05:20;8.70;;;1.08;;
48765;SDS011;65794;51.836;5.002;2023-04-25T18:07:47;5.72;;;1.00;;
48765;SDS011;65794;51.836;5.002;2023-04-25T18:10:14;10.80;;;1.80;;
48765;SDS011;65794;51.836;5.002;2023-04-25T18:12:43;8.05;;;1.33;;
48765;SDS011;65794;51.836;5.002;2023-04-25T18:15:10;7.18;;;1.50;;
48765;SDS011;65794;51.836;5.002;2023-04-25T18:17:37;7.30;;;1.40;;
48765;SDS011;65794;51.836;5.002;2023-04-25T18:20:14;7.47;;;1.42;;
48765;SDS011;65794;51.836;5.002;2023-04-25T18:22:42;4.43;;;1.33;;
48765;SDS011;65794;51.836;5.002;2023-04-25T18:25:10;7.88;;;1.67;;
48765;SDS011;65794;51.836;5.002;2023-04-25T18:27:37;8.13;;;1.13;;
48765;SDS011;65794;51.836;5.002;2023-04-25T18:30:05;6.68;;;1.60;;
48765;SDS011;65794;51.836;5.002;2023-04-25T18:32:34;11.25;;;2.00;;
48765;SDS011;65794;51.836;5.002;2023-04-25T18:35:02;4.47;;;1.50;;
48765;SDS011;65794;51.836;5.002;2023-04-25T18:37:29;6.25;;;1.63;;
48765;SDS011;65794;51.836;5.002;2023-04-25T18:39:56;8.95;;;2.20;;
48765;SDS011;65794;51.836;5.002;2023-04-25T18:42:23;7.05;;;2.15;;
48765;SDS011;65794;51.836;5.002;2023-04-25T18:44:50;18.00;;;2.47;;
48765;SDS011;65794;51.836;5.002;2023-04-25T18:47:19;7.55;;;2.30;;
48765;SDS011;65794;51.836;5.002;2023-04-25T18:49:47;11.13;;;2.10;;
48765;SDS011;65794;51.836;5.002;2023-04-25T18:52:14;10.32;;;2.25;;
48765;SDS011;65794;51.836;5.002;2023-04-25T18:54:41;14.18;;;2.25;;
48765;SDS011;65794;51.836;5.002;2023-04-25T18:57:08;13.13;;;2.17;;
48765;SDS011;65794;51.836;5.002;2023-04-25T18:59:37;7.35;;;2.30;;
48765;SDS011;65794;51.836;5.002;2023-04-25T19:02:03;7.18;;;2.47;;
48765;SDS011;65794;51.836;5.002;2023-04-25T19:04:31;12.50;;;3.53;;
48765;SDS011;65794;51.836;5.002;2023-04-25T19:06:58;9.95;;;2.30;;
48765;SDS011;65794;51.836;5.002;2023-04-25T19:09:28;9.68;;;2.55;;
48765;SDS011;65794;51.836;5.002;2023-04-25T19:11:55;14.93;;;3.63;;
48765;SDS011;65794;51.836;5.002;2023-04-25T19:14:23;10.70;;;2.58;;
48765;SDS011;65794;51.836;5.002;2023-04-25T19:16:50;10.60;;;2.28;;
48765;SDS011;65794;51.836;5.002;2023-04-25T19:19:17;11.57;;;2.40;;
48765;SDS011;65794;51.836;5.002;2023-04-25T19:21:43;13.00;;;2.05;;
48765;SDS011;65794;51.836;5.002;2023-04-25T19:24:10;6.25;;;2.10;;
48765;SDS011;65794;51.836;5.002;2023-04-25T19:26:37;11.95;;;2.40;;
48765;SDS011;65794;51.836;5.002;2023-04-25T19:29:09;5.20;;;1.70;;
48765;SDS011;65794;51.836;5.002;2023-04-25T19:31:38;8.40;;;2.50;;
48765;SDS011;65794;51.836;5.002;2023-04-25T19:34:06;8.48;;;2.13;;
48765;SDS011;65794;51.836;5.002;2023-04-25T19:36:39;11.68;;;2.08;;
48765;SDS011;65794;51.836;5.002;2023-04-25T19:39:06;9.07;;;2.60;;
48765;SDS011;65794;51.836;5.002;2023-04-25T19:41:34;9.13;;;2.55;;
48765;SDS011;65794;51.836;5.002;2023-04-25T19:44:04;8.73;;;2.40;;
48765;SDS011;65794;51.836;5.002;2023-04-25T19:46:33;8.57;;;2.25;;
48765;SDS011;65794;51.836;5.002;2023-04-25T19:49:00;9.02;;;2.25;;
48765;SDS011;65794;51.836;5.002;2023-04-25T19:51:29;7.68;;;2.10;;
48765;SDS011;65794;51.836;5.002;2023-04-25T19:53:57;9.25;;;2.50;;
48765;SDS011;65794;51.836;5.002;2023-04-25T19:56:24;8.63;;;2.20;;
48765;SDS011;65794;51.836;5.002;2023-04-25T19:58:51;6.90;;;2.03;;
48765;SDS011;65794;51.836;5.002;2023-04-25T20:01:19;9.32;;;2.38;;
48765;SDS011;65794;51.836;5.002;2023-04-25T20:03:48;10.70;;;2.33;;
48765;SDS011;65794;51.836;5.002;2023-04-25T20:06:17;12.32;;;2.72;;
48765;SDS011;65794;51.836;5.002;2023-04-25T20:08:44;9.32;;;2.20;;
48765;SDS011;65794;51.836;5.002;2023-04-25T20:11:12;9.63;;;2.42;;
48765;SDS011;65794;51.836;5.002;2023-04-25T20:13:40;11.07;;;2.15;;
48765;SDS011;65794;51.836;5.002;2023-04-25T20:16:07;13.52;;;2.40;;
48765;SDS011;65794;51.836;5.002;2023-04-25T20:18:35;13.77;;;3.17;;
48765;SDS011;65794;51.836;5.002;2023-04-25T20:21:03;7.75;;;2.38;;
48765;SDS011;65794;51.836;5.002;2023-04-25T20:23:30;11.25;;;2.97;;
48765;SDS011;65794;51.836;5.002;2023-04-25T20:25:57;14.63;;;2.58;;
48765;SDS011;65794;51.836;5.002;2023-04-25T20:28:24;14.05;;;3.35;;
48765;SDS011;65794;51.836;5.002;2023-04-25T20:30:52;12.02;;;2.97;;
48765;SDS011;65794;51.836;5.002;2023-04-25T20:33:19;11.60;;;3.50;;
48765;SDS011;65794;51.836;5.002;2023-04-25T20:35:47;16.40;;;3.80;;
48765;SDS011;65794;51.836;5.002;2023-04-25T20:38:14;12.55;;;3.55;;
48765;SDS011;65794;51.836;5.002;2023-04-25T20:40:42;13.02;;;3.72;;
48765;SDS011;65794;51.836;5.002;2023-04-25T20:43:08;8.00;;;2.88;;
48765;SDS011;65794;51.836;5.002;2023-04-25T20:45:37;14.65;;;3.85;;
48765;SDS011;65794;51.836;5.002;2023-04-25T20:48:05;10.27;;;4.07;;
48765;SDS011;65794;51.836;5.002;2023-04-25T20:50:32;16.15;;;3.95;;
48765;SDS011;65794;51.836;5.002;2023-04-25T20:52:59;16.58;;;4.05;;
48765;SDS011;65794;51.836;5.002;2023-04-25T20:55:26;12.48;;;3.50;;
48765;SDS011;65794;51.836;5.002;2023-04-25T20:57:53;13.05;;;3.38;;
48765;SDS011;65794;51.836;5.002;2023-04-25T21:00:20;13.32;;;3.08;;
48765;SDS011;65794;51.836;5.002;2023-04-25T21:02:52;15.13;;;3.75;;
48765;SDS011;65794;51.836;5.002;2023-04-25T21:05:20;13.68;;;3.80;;
48765;SDS011;65794;51.836;5.002;2023-04-25T21:07:48;8.77;;;3.17;;
48765;SDS011;65794;51.836;5.002;2023-04-25T21:10:15;15.68;;;3.85;;
48765;SDS011;65794;51.836;5.002;2023-04-25T21:12:43;12.65;;;3.53;;
48765;SDS011;65794;51.836;5.002;2023-04-25T21:15:17;11.02;;;3.05;;
48765;SDS011;65794;51.836;5.002;2023-04-25T21:17:46;12.00;;;3.60;;
48765;SDS011;65794;51.836;5.002;2023-04-25T21:20:18;12.40;;;4.07;;
48765;SDS011;65794;51.836;5.002;2023-04-25T21:22:46;11.23;;;4.18;;
48765;SDS011;65794;51.836;5.002;2023-04-25T21:25:19;13.85;;;3.65;;
48765;SDS011;65794;51.836;5.002;2023-04-25T21:27:46;13.13;;;3.60;;
48765;SDS011;65794;51.836;5.002;2023-04-25T21:30:18;13.73;;;3.70;;
48765;SDS011;65794;51.836;5.002;2023-04-25T21:32:49;11.50;;;3.60;;
48765;SDS011;65794;51.836;5.002;2023-04-25T21:35:17;11.70;;;3.83;;
48765;SDS011;65794;51.836;5.002;2023-04-25T21:37:45;18.00;;;3.92;;
48765;SDS011;65794;51.836;5.002;2023-04-25T21:40:12;14.02;;;4.15;;
48765;SDS011;65794;51.836;5.002;2023-04-25T21:42:39;11.43;;;4.18;;
48765;SDS011;65794;51.836;5.002;2023-04-25T21:45:11;17.83;;;4.80;;
48765;SDS011;65794;51.836;5.002;2023-04-25T21:47:38;15.57;;;5.00;;
48765;SDS011;65794;51.836;5.002;2023-04-25T21:50:05;14.85;;;4.57;;
48765;SDS011;65794;51.836;5.002;2023-04-25T21:52:34;17.58;;;4.55;;
48765;SDS011;65794;51.836;5.002;2023-04-25T21:55:01;17.92;;;5.40;;
48765;SDS011;65794;51.836;5.002;2023-04-25T21:57:28;12.63;;;3.72;;
48765;SDS011;65794;51.836;5.002;2023-04-25T21:59:55;13.70;;;4.57;;
48765;SDS011;65794;51.836;5.002;2023-04-25T22:02:22;13.05;;;4.53;;
48765;SDS011;65794;51.836;5.002;2023-04-25T22:04:50;13.75;;;4.68;;
48765;SDS011;65794;51.836;5.002;2023-04-25T22:07:18;17.88;;;4.70;;
48765;SDS011;65794;51.836;5.002;2023-04-25T22:09:45;14.85;;;4.68;;
48765;SDS011;65794;51.836;5.002;2023-04-25T22:12:20;12.03;;;4.37;;
48765;SDS011;65794;51.836;5.002;2023-04-25T22:14:48;15.77;;;4.60;;
48765;SDS011;65794;51.836;5.002;2023-04-25T22:17:15;15.60;;;4.55;;
48765;SDS011;65794;51.836;5.002;2023-04-25T22:19:41;20.83;;;4.70;;
48765;SDS011;65794;51.836;5.002;2023-04-25T22:22:08;18.67;;;5.30;;
48765;SDS011;65794;51.836;5.002;2023-04-25T22:24:38;14.77;;;5.00;;
48765;SDS011;65794;51.836;5.002;2023-04-25T22:27:05;14.85;;;4.55;;
48765;SDS011;65794;51.836;5.002;2023-04-25T22:29:32;13.10;;;4.53;;
48765;SDS011;65794;51.836;5.002;2023-04-25T22:31:59;11.85;;;4.57;;
48765;SDS011;65794;51.836;5.002;2023-04-25T22:34:27;12.93;;;4.72;;
48765;SDS011;65794;51.836;5.002;2023-04-25T22:36:54;19.58;;;5.10;;
48765;SDS011;65794;51.836;5.002;2023-04-25T22:39:21;14.02;;;5.18;;
48765;SDS011;65794;51.836;5.002;2023-04-25T22:41:48;14.57;;;4.90;;
48765;SDS011;65794;51.836;5.002;2023-04-25T22:44:15;12.45;;;4.78;;
48765;SDS011;65794;51.836;5.002;2023-04-25T22:46:43;11.50;;;4.75;;
48765;SDS011;65794;51.836;5.002;2023-04-25T22:49:10;13.63;;;5.35;;
48765;SDS011;65794;51.836;5.002;2023-04-25T22:51:37;13.90;;;5.40;;
48765;SDS011;65794;51.836;5.002;2023-04-25T22:54:04;14.85;;;5.63;;
48765;SDS011;65794;51.836;5.002;2023-04-25T22:56:31;13.25;;;5.30;;
48765;SDS011;65794;51.836;5.002;2023-04-25T22:58:58;17.67;;;5.70;;
48765;SDS011;65794;51.836;5.002;2023-04-25T23:01:25;15.60;;;5.30;;
48765;SDS011;65794;51.836;5.002;2023-04-25T23:03:53;17.63;;;5.28;;
48765;SDS011;65794;51.836;5.002;2023-04-25T23:06:20;18.90;;;5.38;;
48765;SDS011;65794;51.836;5.002;2023-04-25T23:08:47;18.27;;;6.15;;
48765;SDS011;65794;51.836;5.002;2023-04-25T23:11:14;13.65;;;5.28;;
48765;SDS011;65794;51.836;5.002;2023-04-25T23:13:41;20.23;;;5.60;;
48765;SDS011;65794;51.836;5.002;2023-04-25T23:16:09;18.20;;;5.80;;
48765;SDS011;65794;51.836;5.002;2023-04-25T23:18:36;17.48;;;5.07;;
48765;SDS011;65794;51.836;5.002;2023-04-25T23:21:04;24.60;;;5.88;;
48765;SDS011;65794;51.836;5.002;2023-04-25T23:23:33;19.15;;;5.65;;
48765;SDS011;65794;51.836;5.002;2023-04-25T23:26:07;19.52;;;6.10;;
48765;SDS011;65794;51.836;5.002;2023-04-25T23:28:35;17.33;;;5.05;;
48765;SDS011;65794;51.836;5.002;2023-04-25T23:31:07;19.92;;;5.43;;
48765;SDS011;65794;51.836;5.002;2023-04-25T23:33:35;17.38;;;5.18;;
48765;SDS011;65794;51.836;5.002;2023-04-25T23:36:02;13.70;;;5.60;;
48765;SDS011;65794;51.836;5.002;2023-04-25T23:38:29;12.93;;;5.60;;
48765;SDS011;65794;51.836;5.002;2023-04-25T23:40:56;13.00;;;5.60;;
48765;SDS011;65794;51.836;5.002;2023-04-25T23:43:22;21.63;;;5.72;;
48765;SDS011;65794;51.836;5.002;2023-04-25T23:45:49;17.38;;;6.15;;
48765;SDS011;65794;51.836;5.002;2023-04-25T23:48:16;14.90;;;5.72;;
48765;SDS011;65794;51.836;5.002;2023-04-25T23:50:43;14.93;;;5.75;;
48765;SDS011;65794;51.836;5.002;2023-04-25T23:53:10;23.40;;;5.20;;
48765;SDS011;65794;51.836;5.002;2023-04-25T23:55:37;12.88;;;5.80;;
48765;SDS011;65794;51.836;5.002;2023-04-25T23:58:04;13.55;;;5.78;;
